createdAt,value
2018-01-13T00:00:23.076Z,41.05
2018-01-13T00:00:56.808Z,40.72
2018-01-13T00:01:31.321Z,40.30
2018-01-13T00:02:05.766Z,39.38
2018-01-13T00:02:39.447Z,38.47
2018-01-13T00:03:13.218Z,41.15
2018-01-13T00:03:47.662Z,41.22
2018-01-13T00:04:21.355Z,41.92
2018-01-13T00:04:55.046Z,41.15
2018-01-13T00:05:28.734Z,37.72
2018-01-13T00:06:02.458Z,42.53
2018-01-13T00:06:36.147Z,43.47
2018-01-13T00:07:09.830Z,41.13
2018-01-13T00:07:43.502Z,42.08
2018-01-13T00:08:17.169Z,40.67
2018-01-13T00:08:50.927Z,42.08
2018-01-13T00:09:25.365Z,41.33
2018-01-13T00:09:59.022Z,40.22
2018-01-13T00:10:32.698Z,42.38
2018-01-13T00:11:06.393Z,41.83
2018-01-13T00:11:40.073Z,41.78
2018-01-13T00:12:13.770Z,41.50
2018-01-13T00:12:48.220Z,39.63
2018-01-13T00:13:21.926Z,43.30
2018-01-13T00:13:55.605Z,40.65
2018-01-13T00:14:29.357Z,41.72
2018-01-13T00:15:03.015Z,41.15
2018-01-13T00:15:36.696Z,38.90
2018-01-13T00:16:10.411Z,40.58
2018-01-13T00:16:44.094Z,41.60
2018-01-13T00:17:17.758Z,42.05
2018-01-13T00:17:51.430Z,41.20
2018-01-13T00:18:25.117Z,39.40
2018-01-13T00:18:58.784Z,43.17
2018-01-13T00:19:33.217Z,39.97
2018-01-13T00:20:06.911Z,38.88
2018-01-13T00:20:40.598Z,39.25
2018-01-13T00:21:14.297Z,40.80
2018-01-13T00:21:47.976Z,39.40
2018-01-13T00:22:21.652Z,41.25
2018-01-13T00:22:55.343Z,40.53
2018-01-13T00:23:29.007Z,39.22
2018-01-13T00:24:02.683Z,38.92
2018-01-13T00:24:36.365Z,39.58
2018-01-13T00:25:10.051Z,40.65
2018-01-13T00:25:43.766Z,40.30
2018-01-13T00:26:17.565Z,41.03
2018-01-13T00:26:52.000Z,41.67
2018-01-13T00:27:25.763Z,39.15
2018-01-13T00:28:00.203Z,40.40
2018-01-13T00:28:33.889Z,40.58
2018-01-13T00:29:07.588Z,39.83
2018-01-13T00:29:41.270Z,39.22
2018-01-13T00:30:14.932Z,41.70
2018-01-13T00:30:49.045Z,42.35
2018-01-13T00:31:23.518Z,42.60
2018-01-13T00:31:57.205Z,41.28
2018-01-13T00:32:30.922Z,41.00
2018-01-13T00:33:05.383Z,41.30
2018-01-13T00:33:39.090Z,43.65
2018-01-13T00:34:12.810Z,44.53
2018-01-13T00:34:47.272Z,44.25
2018-01-13T00:35:21.172Z,42.72
2018-01-13T00:35:54.860Z,44.13
2018-01-13T00:36:28.229Z,45.53
2018-01-13T00:37:01.930Z,46.90
2018-01-13T00:37:35.612Z,45.25
2018-01-13T00:38:09.334Z,46.63
2018-01-13T00:38:43.041Z,46.72
2018-01-13T00:39:17.501Z,49.40
2018-01-13T00:39:51.193Z,49.50
2018-01-13T00:40:24.886Z,50.95
2018-01-13T00:40:58.579Z,53.28
2018-01-13T00:41:32.297Z,50.60
2018-01-13T00:42:05.981Z,51.55
2018-01-13T00:42:39.664Z,53.80
2018-01-13T00:43:13.334Z,50.17
2018-01-13T00:43:47.022Z,52.62
2018-01-13T00:44:20.711Z,53.83
2018-01-13T00:44:55.302Z,53.78
2018-01-13T00:45:28.996Z,54.20
2018-01-13T00:46:02.686Z,54.15
2018-01-13T00:46:36.384Z,51.90
2018-01-13T00:47:10.059Z,51.00
2018-01-13T00:47:43.752Z,52.97
2018-01-13T00:48:17.446Z,54.95
2018-01-13T00:48:51.140Z,51.13
2018-01-13T00:49:24.802Z,52.92
2018-01-13T00:49:59.285Z,52.72
2018-01-13T00:50:32.962Z,53.65
2018-01-13T00:51:06.650Z,52.38
2018-01-13T00:51:40.365Z,53.03
2018-01-13T00:52:14.834Z,51.83
2018-01-13T00:52:48.524Z,52.08
2018-01-13T00:53:22.230Z,52.40
2018-01-13T00:53:55.914Z,50.33
2018-01-13T00:54:29.610Z,52.05
2018-01-13T00:55:03.298Z,50.33
2018-01-13T00:55:36.958Z,51.35
2018-01-13T00:56:10.636Z,50.80
2018-01-13T00:56:44.341Z,51.03
2018-01-13T00:57:18.020Z,49.80
2018-01-13T00:57:51.695Z,49.92
2018-01-13T00:58:25.393Z,52.03
2018-01-13T00:58:59.070Z,53.20
2018-01-13T00:59:33.507Z,49.20
2018-01-13T01:00:07.169Z,49.92
2018-01-13T01:00:40.856Z,51.72
2018-01-13T01:01:15.460Z,53.40
2018-01-13T01:01:49.918Z,51.63
2018-01-13T01:02:23.752Z,52.72
2018-01-13T01:02:58.369Z,52.13
2018-01-13T01:03:32.865Z,52.20
2018-01-13T01:04:07.424Z,53.08
2018-01-13T01:04:41.104Z,50.72
2018-01-13T01:05:14.781Z,51.92
2018-01-13T01:05:48.460Z,52.60
2018-01-13T01:06:26.046Z,53.70
2018-01-13T01:07:02.918Z,53.25
2018-01-13T01:07:36.605Z,50.42
2018-01-13T01:08:11.051Z,50.58
2018-01-13T01:08:44.738Z,52.53
2018-01-13T01:09:18.417Z,50.25
2018-01-13T01:09:52.078Z,50.97
2018-01-13T01:10:25.809Z,52.67
2018-01-13T01:10:59.505Z,51.50
2018-01-13T01:11:33.185Z,49.92
2018-01-13T01:12:06.907Z,51.33
2018-01-13T01:12:40.596Z,51.13
2018-01-13T01:13:14.281Z,52.38
2018-01-13T01:13:49.477Z,48.58
2018-01-13T01:14:23.150Z,49.47
2018-01-13T01:14:56.826Z,50.28
2018-01-13T01:15:30.502Z,50.35
2018-01-13T01:16:04.960Z,50.03
2018-01-13T01:16:44.097Z,48.38
2018-01-13T01:17:18.790Z,49.45
2018-01-13T01:17:53.250Z,48.15
2018-01-13T01:18:27.702Z,49.40
2018-01-13T01:19:01.493Z,46.90
2018-01-13T01:19:35.183Z,46.83
2018-01-13T01:20:08.876Z,49.63
2018-01-13T01:20:42.566Z,49.17
2018-01-13T01:21:16.249Z,48.35
2018-01-13T01:21:49.909Z,46.65
2018-01-13T01:22:23.597Z,47.50
2018-01-13T01:22:57.273Z,49.58
2018-01-13T01:23:31.727Z,47.38
2018-01-13T01:24:05.391Z,46.90
2018-01-13T01:24:39.074Z,47.15
2018-01-13T01:25:12.746Z,46.20
2018-01-13T01:25:47.173Z,48.60
2018-01-13T01:26:20.851Z,50.55
2018-01-13T01:26:55.302Z,47.83
2018-01-13T01:27:28.998Z,48.63
2018-01-13T01:28:02.679Z,47.67
2018-01-13T01:28:36.608Z,49.10
2018-01-13T01:29:10.269Z,49.92
2018-01-13T01:29:43.926Z,47.65
2018-01-13T01:30:17.599Z,49.95
2018-01-13T01:30:52.022Z,52.13
2018-01-13T01:31:26.461Z,51.33
2018-01-13T01:32:00.144Z,49.42
2018-01-13T01:32:33.838Z,49.58
2018-01-13T01:33:07.515Z,51.65
2018-01-13T01:33:41.182Z,47.17
2018-01-13T01:34:15.930Z,48.33
2018-01-13T01:34:49.587Z,52.08
2018-01-13T01:35:24.026Z,50.33
2018-01-13T01:35:57.718Z,49.20
2018-01-13T01:36:31.391Z,48.92
2018-01-13T01:37:05.066Z,48.38
2018-01-13T01:37:38.772Z,49.03
2018-01-13T01:38:12.439Z,48.60
2018-01-13T01:38:46.882Z,49.25
2018-01-13T01:39:20.534Z,51.35
2018-01-13T01:39:55.222Z,50.78
2018-01-13T01:40:28.905Z,49.25
2018-01-13T01:41:02.584Z,52.35
2018-01-13T01:41:36.253Z,49.85
2018-01-13T01:42:09.911Z,50.72
2018-01-13T01:42:44.385Z,48.90
2018-01-13T01:43:18.265Z,50.35
2018-01-13T01:43:51.936Z,52.42
2018-01-13T01:44:25.593Z,50.42
2018-01-13T01:45:00.045Z,48.83
2018-01-13T01:45:33.718Z,51.65
2018-01-13T01:46:07.383Z,52.85
2018-01-13T01:46:41.053Z,52.30
2018-01-13T01:47:15.505Z,49.42
2018-01-13T01:47:48.901Z,52.00
2018-01-13T01:48:26.505Z,53.83
2018-01-13T01:49:00.301Z,49.60
2018-01-13T01:49:33.967Z,52.22
2018-01-13T01:50:07.306Z,52.05
2018-01-13T01:50:41.741Z,51.97
2018-01-13T01:51:15.090Z,54.70
2018-01-13T01:51:49.524Z,52.15
2018-01-13T01:52:23.186Z,53.47
2018-01-13T01:52:57.633Z,50.35
2018-01-13T01:53:31.309Z,52.80
2018-01-13T01:54:04.972Z,53.40
2018-01-13T01:54:39.437Z,50.95
2018-01-13T01:55:13.124Z,52.13
2018-01-13T01:55:46.820Z,51.92
2018-01-13T01:56:20.493Z,52.70
2018-01-13T01:56:54.184Z,54.38
2018-01-13T01:57:27.883Z,54.28
2018-01-13T01:58:01.604Z,53.75
2018-01-13T01:58:36.050Z,51.50
2018-01-13T01:59:09.725Z,52.90
2018-01-13T01:59:44.166Z,52.72
2018-01-13T02:00:17.836Z,54.78
2018-01-13T02:00:51.509Z,51.90
2018-01-13T02:01:25.959Z,54.75
2018-01-13T02:01:59.644Z,51.55
2018-01-13T02:02:33.330Z,52.58
2018-01-13T02:03:07.051Z,55.65
2018-01-13T02:03:40.755Z,53.67
2018-01-13T02:04:15.197Z,51.78
2018-01-13T02:04:48.862Z,53.25
2018-01-13T02:05:23.298Z,50.88
2018-01-13T02:05:56.965Z,51.60
2018-01-13T02:06:31.424Z,52.47
2018-01-13T02:07:05.106Z,52.65
2018-01-13T02:07:38.795Z,53.35
2018-01-13T02:08:12.491Z,54.28
2018-01-13T02:08:46.169Z,54.47
2018-01-13T02:09:19.846Z,54.78
2018-01-13T02:09:53.509Z,53.53
2018-01-13T02:10:27.957Z,52.88
2018-01-13T02:11:01.646Z,52.17
2018-01-13T02:11:35.321Z,52.03
2018-01-13T02:12:08.990Z,54.90
2018-01-13T02:12:43.417Z,51.37
2018-01-13T02:13:17.116Z,54.45
2018-01-13T02:13:50.819Z,51.25
2018-01-13T02:14:24.502Z,54.92
2018-01-13T02:14:58.219Z,53.75
2018-01-13T02:15:31.674Z,54.97
2018-01-13T02:16:05.356Z,56.20
2018-01-13T02:16:39.022Z,57.67
2018-01-13T02:17:13.455Z,54.53
2018-01-13T02:17:47.132Z,54.53
2018-01-13T02:18:20.830Z,54.97
2018-01-13T02:18:54.499Z,56.17
2018-01-13T02:19:28.174Z,58.00
2018-01-13T02:20:02.609Z,54.75
2018-01-13T02:20:36.283Z,57.03
2018-01-13T02:21:10.733Z,58.80
2018-01-13T02:21:44.416Z,56.42
2018-01-13T02:22:18.100Z,58.85
2018-01-13T02:22:51.796Z,56.65
2018-01-13T02:23:25.525Z,55.60
2018-01-13T02:23:59.214Z,55.58
2018-01-13T02:24:33.663Z,53.92
2018-01-13T02:25:07.334Z,57.70
2018-01-13T02:25:41.770Z,56.63
2018-01-13T02:26:15.440Z,55.90
2018-01-13T02:26:49.112Z,53.67
2018-01-13T02:27:23.582Z,54.75
2018-01-13T02:27:56.969Z,54.30
2018-01-13T02:28:30.686Z,58.15
2018-01-13T02:29:05.202Z,56.15
2018-01-13T02:29:39.666Z,51.42
2018-01-13T02:30:13.344Z,56.58
2018-01-13T02:30:47.046Z,54.28
2018-01-13T02:31:20.721Z,55.25
2018-01-13T02:31:54.414Z,54.50
2018-01-13T02:32:28.162Z,56.67
2018-01-13T02:33:02.623Z,56.65
2018-01-13T02:33:36.331Z,53.50
2018-01-13T02:34:10.011Z,54.60
2018-01-13T02:34:43.875Z,56.40
2018-01-13T02:35:17.546Z,54.47
2018-01-13T02:35:51.971Z,53.80
2018-01-13T02:36:25.643Z,53.45
2018-01-13T02:37:00.090Z,55.83
2018-01-13T02:37:33.781Z,56.53
2018-01-13T02:38:07.667Z,56.50
2018-01-13T02:38:41.375Z,55.42
2018-01-13T02:39:15.048Z,56.30
2018-01-13T02:39:48.744Z,54.80
2018-01-13T02:40:22.434Z,54.92
2018-01-13T02:40:56.119Z,56.92
2018-01-13T02:41:29.792Z,56.60
2018-01-13T02:42:03.469Z,56.30
2018-01-13T02:42:36.814Z,55.55
2018-01-13T02:43:10.495Z,57.62
2018-01-13T02:43:44.215Z,54.80
2018-01-13T02:44:18.671Z,57.75
2018-01-13T02:44:52.363Z,59.00
2018-01-13T02:45:26.115Z,59.95
2018-01-13T02:45:59.786Z,57.13
2018-01-13T02:46:34.238Z,57.55
2018-01-13T02:47:07.926Z,58.67
2018-01-13T02:47:41.609Z,57.58
2018-01-13T02:48:15.281Z,60.78
2018-01-13T02:48:48.969Z,58.33
2018-01-13T02:49:23.414Z,60.70
2018-01-13T02:49:57.084Z,57.13
2018-01-13T02:50:30.759Z,59.58
2018-01-13T02:51:04.451Z,57.62
2018-01-13T02:51:38.117Z,60.85
2018-01-13T02:52:12.580Z,57.38
2018-01-13T02:52:46.272Z,58.65
2018-01-13T02:53:20.030Z,60.08
2018-01-13T02:53:53.742Z,59.00
2018-01-13T02:54:27.430Z,57.80
2018-01-13T02:55:01.120Z,58.90
2018-01-13T02:55:34.808Z,59.67
2018-01-13T02:56:08.499Z,57.08
2018-01-13T02:56:42.196Z,57.92
2018-01-13T02:57:15.871Z,61.20
2018-01-13T02:57:49.569Z,58.80
2018-01-13T02:58:23.238Z,58.58
2018-01-13T02:58:56.949Z,58.97
2018-01-13T02:59:30.628Z,61.05
2018-01-13T03:00:03.832Z,57.20
2018-01-13T03:00:37.518Z,58.55
2018-01-13T03:01:11.208Z,61.55
2018-01-13T03:01:44.984Z,59.97
2018-01-13T03:02:18.678Z,63.45
2018-01-13T03:02:52.367Z,59.80
2018-01-13T03:03:26.054Z,57.53
2018-01-13T03:03:59.759Z,60.75
2018-01-13T03:04:33.432Z,60.22
2018-01-13T03:05:07.103Z,59.42
2018-01-13T03:05:41.546Z,61.37
2018-01-13T03:06:15.235Z,61.95
2018-01-13T03:06:48.924Z,60.08
2018-01-13T03:07:22.613Z,62.65
2018-01-13T03:07:56.306Z,61.22
2018-01-13T03:08:29.992Z,57.80
2018-01-13T03:09:03.182Z,61.17
2018-01-13T03:09:36.861Z,57.40
2018-01-13T03:10:10.552Z,59.03
2018-01-13T03:10:44.224Z,57.78
2018-01-13T03:11:17.916Z,59.90
2018-01-13T03:11:51.600Z,57.92
2018-01-13T03:12:25.273Z,62.47
2018-01-13T03:12:58.947Z,59.13
2018-01-13T03:13:33.408Z,58.72
2018-01-13T03:14:07.106Z,59.42
2018-01-13T03:14:40.787Z,62.03
2018-01-13T03:15:14.476Z,64.37
2018-01-13T03:15:48.165Z,61.37
2018-01-13T03:16:21.824Z,60.08
2018-01-13T03:16:55.509Z,65.40
2018-01-13T03:17:29.182Z,66.37
2018-01-13T03:18:03.614Z,65.62
2018-01-13T03:18:37.303Z,63.10
2018-01-13T03:19:11.022Z,65.93
2018-01-13T03:19:44.684Z,64.80
2018-01-13T03:20:18.379Z,68.68
2018-01-13T03:20:52.049Z,64.45
2018-01-13T03:21:26.293Z,68.80
2018-01-13T03:21:59.971Z,67.47
2018-01-13T03:22:33.708Z,66.72
2018-01-13T03:23:07.394Z,68.60
2018-01-13T03:23:41.061Z,65.50
2018-01-13T03:24:14.778Z,64.72
2018-01-13T03:24:48.122Z,67.25
2018-01-13T03:25:21.796Z,66.18
2018-01-13T03:25:55.489Z,67.68
2018-01-13T03:26:29.163Z,66.20
2018-01-13T03:27:02.830Z,67.20
2018-01-13T03:27:37.287Z,62.88
2018-01-13T03:28:10.981Z,63.72
2018-01-13T03:28:44.673Z,65.53
2018-01-13T03:29:18.383Z,62.72
2018-01-13T03:29:52.050Z,60.83
2018-01-13T03:30:25.763Z,63.30
2018-01-13T03:30:59.541Z,68.53
2018-01-13T03:31:33.225Z,64.75
2018-01-13T03:32:06.933Z,61.97
2018-01-13T03:32:40.600Z,63.80
2018-01-13T03:33:14.290Z,67.35
2018-01-13T03:33:47.984Z,65.90
2018-01-13T03:34:21.881Z,63.45
2018-01-13T03:34:55.565Z,62.80
2018-01-13T03:35:29.253Z,65.22
2018-01-13T03:36:02.942Z,65.05
2018-01-13T03:36:36.617Z,64.37
2018-01-13T03:37:10.307Z,63.92
2018-01-13T03:37:43.982Z,62.40
2018-01-13T03:38:17.679Z,64.00
2018-01-13T03:38:51.354Z,64.03
2018-01-13T03:39:25.110Z,64.35
2018-01-13T03:39:58.792Z,65.00
2018-01-13T03:40:32.487Z,64.35
2018-01-13T03:41:06.152Z,64.47
2018-01-13T03:41:39.831Z,62.47
2018-01-13T03:42:13.519Z,62.95
2018-01-13T03:42:47.186Z,63.33
2018-01-13T03:43:20.864Z,63.67
2018-01-13T03:43:55.286Z,62.35
2018-01-13T03:44:28.996Z,63.28
2018-01-13T03:45:02.663Z,63.00
2018-01-13T03:45:37.108Z,64.87
2018-01-13T03:46:10.794Z,63.60
2018-01-13T03:46:44.457Z,63.30
2018-01-13T03:47:18.130Z,63.28
2018-01-13T03:47:54.684Z,67.62
2018-01-13T03:48:29.156Z,62.75
2018-01-13T03:49:02.834Z,66.12
2018-01-13T03:49:36.565Z,63.95
2018-01-13T03:50:10.250Z,64.87
2018-01-13T03:50:44.687Z,63.87
2018-01-13T03:51:18.369Z,62.65
2018-01-13T03:51:52.832Z,65.32
2018-01-13T03:52:26.522Z,62.38
2018-01-13T03:53:00.187Z,65.12
2018-01-13T03:53:33.876Z,64.15
2018-01-13T03:54:07.564Z,63.60
2018-01-13T03:54:41.262Z,62.75
2018-01-13T03:55:14.945Z,62.20
2018-01-13T03:55:48.608Z,63.78
2018-01-13T03:56:21.968Z,65.65
2018-01-13T03:56:55.648Z,61.45
2018-01-13T03:57:29.320Z,62.22
2018-01-13T03:58:03.013Z,61.90
2018-01-13T03:58:36.699Z,62.05
2018-01-13T03:59:10.379Z,62.13
2018-01-13T03:59:44.078Z,63.45
2018-01-13T04:00:17.742Z,61.75
2018-01-13T04:00:51.407Z,61.70
2018-01-13T04:01:25.842Z,60.03
2018-01-13T04:01:59.502Z,62.00
2018-01-13T04:02:33.245Z,62.75
2018-01-13T04:03:06.934Z,63.63
2018-01-13T04:03:40.639Z,59.35
2018-01-13T04:04:14.326Z,62.10
2018-01-13T04:04:48.021Z,60.42
2018-01-13T04:05:21.691Z,58.45
2018-01-13T04:05:55.381Z,58.80
2018-01-13T04:06:28.714Z,61.63
2018-01-13T04:07:03.149Z,60.53
2018-01-13T04:07:36.809Z,60.63
2018-01-13T04:08:11.259Z,60.40
2018-01-13T04:08:44.947Z,61.28
2018-01-13T04:09:18.626Z,61.28
2018-01-13T04:09:52.315Z,60.90
2018-01-13T04:10:25.988Z,61.15
2018-01-13T04:10:59.664Z,61.50
2018-01-13T04:11:34.103Z,62.42
2018-01-13T04:12:07.762Z,64.45
2018-01-13T04:12:42.200Z,60.38
2018-01-13T04:13:15.870Z,58.97
2018-01-13T04:13:49.576Z,63.25
2018-01-13T04:14:23.249Z,59.42
2018-01-13T04:14:56.939Z,58.15
2018-01-13T04:15:30.279Z,62.75
2018-01-13T04:16:03.943Z,62.78
2018-01-13T04:16:37.628Z,62.72
2018-01-13T04:17:11.317Z,62.30
2018-01-13T04:17:45.013Z,65.53
2018-01-13T04:18:18.685Z,62.30
2018-01-13T04:18:52.354Z,63.13
2018-01-13T04:19:26.070Z,63.22
2018-01-13T04:19:59.757Z,59.33
2018-01-13T04:20:33.421Z,62.90
2018-01-13T04:21:07.137Z,62.00
2018-01-13T04:21:40.802Z,63.85
2018-01-13T04:22:14.153Z,64.80
2018-01-13T04:22:47.813Z,63.70
2018-01-13T04:23:21.493Z,65.43
2018-01-13T04:23:55.173Z,63.92
2018-01-13T04:24:28.840Z,61.92
2018-01-13T04:25:02.534Z,68.03
2018-01-13T04:25:36.218Z,67.85
2018-01-13T04:26:09.927Z,65.50
2018-01-13T04:26:43.601Z,66.15
2018-01-13T04:27:17.311Z,66.62
2018-01-13T04:27:50.654Z,64.72
2018-01-13T04:28:25.101Z,66.15
2018-01-13T04:28:58.790Z,66.20
2018-01-13T04:29:32.458Z,68.62
2018-01-13T04:30:06.149Z,67.97
2018-01-13T04:30:39.841Z,63.20
2018-01-13T04:31:13.509Z,62.72
2018-01-13T04:31:47.957Z,64.07
2018-01-13T04:32:21.625Z,65.28
2018-01-13T04:32:55.299Z,65.05
2018-01-13T04:33:29.729Z,64.68
2018-01-13T04:34:03.401Z,64.57
2018-01-13T04:34:37.837Z,63.33
2018-01-13T04:35:11.548Z,62.20
2018-01-13T04:35:45.218Z,63.40
2018-01-13T04:36:19.038Z,60.53
2018-01-13T04:36:52.716Z,62.10
2018-01-13T04:37:26.387Z,64.07
2018-01-13T04:38:00.099Z,62.42
2018-01-13T04:38:33.772Z,65.70
2018-01-13T04:39:07.443Z,63.70
2018-01-13T04:39:40.788Z,61.55
2018-01-13T04:40:14.497Z,62.03
2018-01-13T04:40:48.941Z,62.03
2018-01-13T04:41:22.610Z,60.65
2018-01-13T04:41:56.280Z,59.15
2018-01-13T04:42:29.957Z,57.13
2018-01-13T04:43:03.632Z,61.03
2018-01-13T04:43:37.308Z,63.05
2018-01-13T04:44:10.983Z,60.80
2018-01-13T04:44:44.649Z,57.80
2018-01-13T04:45:18.355Z,60.95
2018-01-13T04:45:52.025Z,60.38
2018-01-13T04:46:25.702Z,59.95
2018-01-13T04:47:00.178Z,61.53
2018-01-13T04:47:33.849Z,61.40
2018-01-13T04:48:07.523Z,64.40
2018-01-13T04:48:41.198Z,61.30
2018-01-13T04:49:14.878Z,59.92
2018-01-13T04:49:48.566Z,60.22
2018-01-13T04:50:22.253Z,59.53
2018-01-13T04:50:55.970Z,61.03
2018-01-13T04:51:29.638Z,60.80
2018-01-13T04:52:03.333Z,61.55
2018-01-13T04:52:37.037Z,61.25
2018-01-13T04:53:10.713Z,59.83
2018-01-13T04:53:44.395Z,61.83
2018-01-13T04:54:18.073Z,61.40
2018-01-13T04:54:52.518Z,66.70
2018-01-13T04:55:26.203Z,59.33
2018-01-13T04:55:59.873Z,61.25
2018-01-13T04:56:34.301Z,62.45
2018-01-13T04:57:07.977Z,63.17
2018-01-13T04:57:42.405Z,63.97
2018-01-13T04:58:16.106Z,62.75
2018-01-13T04:58:49.782Z,63.22
2018-01-13T04:59:23.452Z,64.12
2018-01-13T04:59:57.141Z,60.50
2018-01-13T05:00:30.846Z,61.20
2018-01-13T05:01:04.536Z,62.13
2018-01-13T05:01:38.226Z,63.00
2018-01-13T05:02:11.947Z,59.60
2018-01-13T05:02:45.627Z,62.80
2018-01-13T05:03:19.310Z,61.30
2018-01-13T05:03:52.973Z,59.90
2018-01-13T05:04:26.649Z,62.22
2018-01-13T05:05:01.097Z,58.42
2018-01-13T05:05:34.808Z,62.25
2018-01-13T05:06:08.486Z,60.72
2018-01-13T05:06:42.173Z,63.53
2018-01-13T05:07:15.914Z,59.97
2018-01-13T05:07:50.404Z,62.28
2018-01-13T05:08:24.183Z,60.00
2018-01-13T05:08:57.881Z,58.60
2018-01-13T05:09:31.571Z,62.80
2018-01-13T05:10:05.237Z,60.25
2018-01-13T05:10:38.925Z,62.47
2018-01-13T05:11:12.603Z,59.85
2018-01-13T05:11:46.290Z,60.78
2018-01-13T05:12:19.953Z,57.80
2018-01-13T05:12:53.635Z,62.50
2018-01-13T05:13:28.078Z,60.55
2018-01-13T05:14:01.564Z,62.60
2018-01-13T05:14:35.226Z,64.60
2018-01-13T05:15:08.884Z,61.25
2018-01-13T05:15:42.686Z,61.33
2018-01-13T05:16:16.361Z,59.35
2018-01-13T05:16:50.053Z,60.67
2018-01-13T05:17:23.719Z,59.25
2018-01-13T05:17:57.408Z,62.25
2018-01-13T05:18:31.102Z,59.72
2018-01-13T05:19:04.256Z,62.03
2018-01-13T05:19:37.945Z,61.15
2018-01-13T05:20:11.635Z,57.38
2018-01-13T05:20:45.341Z,61.50
2018-01-13T05:21:19.023Z,59.47
2018-01-13T05:21:52.727Z,59.83
2018-01-13T05:22:26.398Z,61.05
2018-01-13T05:23:00.065Z,61.67
2018-01-13T05:23:33.772Z,55.67
2018-01-13T05:24:07.437Z,55.97
2018-01-13T05:24:41.878Z,55.15
2018-01-13T05:25:15.541Z,56.03
2018-01-13T05:25:49.254Z,53.95
2018-01-13T05:26:22.913Z,55.53
2018-01-13T05:26:57.358Z,54.13
2018-01-13T05:27:31.045Z,50.47
2018-01-13T05:28:04.735Z,51.78
2018-01-13T05:28:38.408Z,51.92
2018-01-13T05:29:12.078Z,52.10
2018-01-13T05:29:46.524Z,52.58
2018-01-13T05:30:20.238Z,54.17
2018-01-13T05:30:53.936Z,54.38
2018-01-13T05:31:27.597Z,51.75
2018-01-13T05:32:01.278Z,50.20
2018-01-13T05:32:34.949Z,52.70
2018-01-13T05:33:08.625Z,50.35
2018-01-13T05:33:43.065Z,50.00
2018-01-13T05:34:16.733Z,48.63
2018-01-13T05:34:50.405Z,49.15
2018-01-13T05:35:24.841Z,50.17
2018-01-13T05:35:58.608Z,46.88
2018-01-13T05:36:33.091Z,48.38
2018-01-13T05:37:06.772Z,47.75
2018-01-13T05:37:40.426Z,49.15
2018-01-13T05:38:14.099Z,47.22
2018-01-13T05:38:47.769Z,47.25
2018-01-13T05:39:22.209Z,47.85
2018-01-13T05:39:55.869Z,47.15
2018-01-13T05:40:29.969Z,45.25
2018-01-13T05:41:04.425Z,48.83
2018-01-13T05:41:38.097Z,48.17
2018-01-13T05:42:11.437Z,48.63
2018-01-13T05:42:45.886Z,51.35
2018-01-13T05:43:19.549Z,52.20
2018-01-13T05:43:53.980Z,55.08
2018-01-13T05:44:27.646Z,52.15
2018-01-13T05:45:02.104Z,51.15
2018-01-13T05:45:35.782Z,54.95
2018-01-13T05:46:09.493Z,51.33
2018-01-13T05:46:43.157Z,53.03
2018-01-13T05:47:16.841Z,52.92
2018-01-13T05:47:50.502Z,52.10
2018-01-13T05:48:24.178Z,55.15
2018-01-13T05:48:59.750Z,54.95
2018-01-13T05:49:33.423Z,53.83
2018-01-13T05:50:07.076Z,54.13
2018-01-13T05:50:40.737Z,56.72
2018-01-13T05:51:14.442Z,55.00
2018-01-13T05:51:48.097Z,57.28
2018-01-13T05:52:21.783Z,54.35
2018-01-13T05:52:55.449Z,56.15
2018-01-13T05:53:29.884Z,54.47
2018-01-13T05:54:03.569Z,57.35
2018-01-13T05:54:37.338Z,55.08
2018-01-13T05:55:11.771Z,55.80
2018-01-13T05:55:45.434Z,56.83
2018-01-13T05:56:19.929Z,57.15
2018-01-13T05:56:54.370Z,56.78
2018-01-13T05:57:28.049Z,59.55
2018-01-13T05:58:01.717Z,55.92
2018-01-13T05:58:36.163Z,55.22
2018-01-13T05:59:09.825Z,57.53
2018-01-13T05:59:44.270Z,55.97
2018-01-13T06:00:17.969Z,58.70
2018-01-13T06:00:51.565Z,56.35
2018-01-13T06:01:25.070Z,54.65
2018-01-13T06:01:58.570Z,57.50
2018-01-13T06:02:33.018Z,57.53
2018-01-13T06:03:06.702Z,59.45
2018-01-13T06:03:40.377Z,59.05
2018-01-13T06:04:14.840Z,56.83
2018-01-13T06:04:48.505Z,60.35
2018-01-13T06:05:22.196Z,59.08
2018-01-13T06:05:55.872Z,57.35
2018-01-13T06:06:29.617Z,57.97
2018-01-13T06:07:03.465Z,58.40
2018-01-13T06:07:37.433Z,58.47
2018-01-13T06:08:11.110Z,60.17
2018-01-13T06:08:45.553Z,57.62
2018-01-13T06:09:19.237Z,60.00
2018-01-13T06:09:52.918Z,58.50
2018-01-13T06:10:26.611Z,58.80
2018-01-13T06:11:00.290Z,60.10
2018-01-13T06:11:34.001Z,60.15
2018-01-13T06:12:07.669Z,58.63
2018-01-13T06:12:42.109Z,58.15
2018-01-13T06:13:15.791Z,58.05
2018-01-13T06:13:49.482Z,58.05
2018-01-13T06:14:23.153Z,56.90
2018-01-13T06:14:56.834Z,56.78
2018-01-13T06:15:31.266Z,59.17
2018-01-13T06:16:04.932Z,54.78
2018-01-13T06:16:38.642Z,55.00
2018-01-13T06:17:12.319Z,55.63
2018-01-13T06:17:46.007Z,54.35
2018-01-13T06:18:19.672Z,56.05
2018-01-13T06:18:54.121Z,52.20
2018-01-13T06:19:27.810Z,57.62
2018-01-13T06:20:01.509Z,53.55
2018-01-13T06:20:35.191Z,55.88
2018-01-13T06:21:08.874Z,55.40
2018-01-13T06:21:42.574Z,55.95
2018-01-13T06:22:16.255Z,52.50
2018-01-13T06:22:49.932Z,52.50
2018-01-13T06:23:23.608Z,54.53
2018-01-13T06:23:58.050Z,53.10
2018-01-13T06:24:31.758Z,52.83
2018-01-13T06:25:05.430Z,51.65
2018-01-13T06:25:39.097Z,51.63
2018-01-13T06:26:12.764Z,54.50
2018-01-13T06:26:46.454Z,51.65
2018-01-13T06:27:20.900Z,50.63
2018-01-13T06:27:54.557Z,51.35
2018-01-13T06:28:28.980Z,53.85
2018-01-13T06:29:02.661Z,48.72
2018-01-13T06:29:37.094Z,51.78
2018-01-13T06:30:10.769Z,50.95
2018-01-13T06:30:44.468Z,50.85
2018-01-13T06:31:18.314Z,51.37
2018-01-13T06:31:52.007Z,51.40
2018-01-13T06:32:25.694Z,52.67
2018-01-13T06:32:59.372Z,50.00
2018-01-13T06:33:33.054Z,50.35
2018-01-13T06:34:06.738Z,52.17
2018-01-13T06:34:40.424Z,49.55
2018-01-13T06:35:14.094Z,52.80
2018-01-13T06:35:47.770Z,52.38
2018-01-13T06:36:21.425Z,51.55
2018-01-13T06:36:54.791Z,51.78
2018-01-13T06:37:28.466Z,50.75
2018-01-13T06:38:02.130Z,51.58
2018-01-13T06:38:35.911Z,49.75
2018-01-13T06:39:09.565Z,52.30
2018-01-13T06:39:43.252Z,50.95
2018-01-13T06:40:16.940Z,50.60
2018-01-13T06:40:50.630Z,52.55
2018-01-13T06:41:24.322Z,50.17
2018-01-13T06:41:58.047Z,51.10
2018-01-13T06:42:31.742Z,50.25
2018-01-13T06:43:05.422Z,50.38
2018-01-13T06:43:39.853Z,50.47
2018-01-13T06:44:13.542Z,52.17
2018-01-13T06:44:47.219Z,53.00
2018-01-13T06:45:20.567Z,50.25
2018-01-13T06:45:55.258Z,50.03
2018-01-13T06:46:28.940Z,51.45
2018-01-13T06:47:02.658Z,51.70
2018-01-13T06:47:36.342Z,52.60
2018-01-13T06:48:10.033Z,49.08
2018-01-13T06:48:43.718Z,48.97
2018-01-13T06:49:17.397Z,50.25
2018-01-13T06:49:51.079Z,49.50
2018-01-13T06:50:24.769Z,49.83
2018-01-13T06:50:58.458Z,48.53
2018-01-13T06:51:32.134Z,46.22
2018-01-13T06:52:05.835Z,47.65
2018-01-13T06:52:39.500Z,47.13
2018-01-13T06:53:13.179Z,47.35
2018-01-13T06:53:50.931Z,44.40
2018-01-13T06:54:25.369Z,44.92
2018-01-13T06:54:59.041Z,43.33
2018-01-13T06:55:33.464Z,42.50
2018-01-13T06:56:07.139Z,42.25
2018-01-13T06:56:41.597Z,43.47
2018-01-13T06:57:15.293Z,41.05
2018-01-13T06:57:51.123Z,40.25
2018-01-13T07:11:29.841Z,23.00
2018-01-13T07:12:03.535Z,27.58
2018-01-13T07:12:37.210Z,28.20
2018-01-13T07:13:10.890Z,30.85
2018-01-13T07:13:44.546Z,32.05
2018-01-13T07:14:19.005Z,33.50
2018-01-13T07:14:52.673Z,33.45
2018-01-13T07:15:26.350Z,32.45
2018-01-13T07:16:00.062Z,33.55
2018-01-13T07:16:33.730Z,32.97
2018-01-13T07:17:07.435Z,33.22
2018-01-13T07:17:41.089Z,32.72
2018-01-13T07:18:15.497Z,31.67
2018-01-13T07:18:50.042Z,31.58
2018-01-13T07:19:23.733Z,30.60
2018-01-13T07:19:57.389Z,32.88
2018-01-13T07:20:31.069Z,32.38
2018-01-13T07:21:05.501Z,31.60
2018-01-13T07:21:39.167Z,31.58
2018-01-13T07:22:13.594Z,33.58
2018-01-13T07:22:47.265Z,31.65
2018-01-13T07:23:21.707Z,31.70
2018-01-13T07:23:55.369Z,30.77
2018-01-13T07:24:29.069Z,31.30
2018-01-13T07:25:02.742Z,31.40
2018-01-13T07:25:37.193Z,30.55
2018-01-13T07:26:10.900Z,30.77
2018-01-13T07:26:44.567Z,31.15
2018-01-13T07:27:18.236Z,31.02
2018-01-13T07:27:51.906Z,30.85
2018-01-13T07:28:26.364Z,30.08
2018-01-13T07:29:00.054Z,30.90